createdAt,value
2023-02-14T00:01:26.659Z,49.50
2023-02-14T00:03:54.913Z,57.33
2023-02-14T00:06:22.844Z,44.30
2023-02-14T00:08:52.447Z,40.67
2023-02-14T00:11:20.714Z,38.57
2023-02-14T00:14:07.511Z,39.23
2023-02-14T00:16:36.543Z,36.20
2023-02-14T00:19:05.471Z,41.50
2023-02-14T00:21:35.978Z,40.10
2023-02-14T00:24:07.907Z,36.80
2023-02-14T00:26:38.723Z,35.17
2023-02-14T00:29:07.455Z,39.23
2023-02-14T00:31:35.526Z,33.30
2023-02-14T00:34:04.098Z,38.33
2023-02-14T00:36:33.632Z,35.47
2023-02-14T00:39:06.862Z,36.30
2023-02-14T00:41:35.172Z,36.27
2023-02-14T00:44:02.769Z,35.87
2023-02-14T00:46:30.780Z,38.57
2023-02-14T00:48:59.069Z,35.93
2023-02-14T00:51:27.639Z,38.53
2023-02-14T00:53:55.454Z,32.23
2023-02-14T00:56:23.719Z,40.20
2023-02-14T00:58:51.932Z,38.00
2023-02-14T01:01:20.052Z,34.93
2023-02-14T01:03:49.874Z,37.30
2023-02-14T01:06:17.881Z,40.23
2023-02-14T01:08:46.490Z,40.10
2023-02-14T01:11:24.363Z,40.97
2023-02-14T01:13:52.616Z,41.67
2023-02-14T01:16:20.808Z,40.67
2023-02-14T01:18:48.136Z,38.83
2023-02-14T01:21:28.066Z,38.60
2023-02-14T01:23:59.926Z,37.20
2023-02-14T01:26:27.586Z,33.10
2023-02-14T01:29:01.184Z,32.27
2023-02-14T01:31:30.414Z,34.40
2023-02-14T01:33:58.487Z,34.60
2023-02-14T01:36:52.304Z,41.80
2023-02-14T01:39:20.638Z,39.70
2023-02-14T01:41:49.124Z,38.87
2023-02-14T01:44:16.202Z,40.20
2023-02-14T01:46:45.141Z,39.27
2023-02-14T01:49:11.838Z,38.10
2023-02-14T01:51:40.570Z,35.63
2023-02-14T01:54:08.476Z,46.70
2023-02-14T01:56:39.215Z,44.00
2023-02-14T01:59:07.735Z,43.43
2023-02-14T02:01:35.581Z,38.73
2023-02-14T02:04:15.238Z,40.10
2023-02-14T02:06:48.421Z,37.80
2023-02-14T02:09:34.207Z,45.93
2023-02-14T02:12:02.424Z,40.30
2023-02-14T02:14:31.800Z,39.50
2023-02-14T02:17:21.071Z,50.60
2023-02-14T02:20:13.002Z,43.07
2023-02-14T02:23:13.910Z,40.93
2023-02-14T02:25:53.071Z,38.03
2023-02-14T02:28:45.474Z,42.27
2023-02-14T02:31:28.135Z,38.70
2023-02-14T02:34:04.624Z,41.83
2023-02-14T02:37:18.585Z,39.15
2023-02-14T02:40:10.292Z,42.37
2023-02-14T02:42:53.706Z,40.93
2023-02-14T02:45:34.520Z,46.77
2023-02-14T02:48:11.355Z,39.00
2023-02-14T02:51:04.735Z,41.78
2023-02-14T02:54:25.761Z,40.17
2023-02-14T02:56:58.633Z,40.90
2023-02-14T02:59:28.884Z,41.70
2023-02-14T03:02:02.505Z,37.47
2023-02-14T03:04:47.533Z,45.10
2023-02-14T03:07:34.022Z,38.70
2023-02-14T03:10:14.406Z,38.97
2023-02-14T03:12:59.390Z,40.63
2023-02-14T03:15:37.579Z,42.47
2023-02-14T03:19:00.677Z,41.43
2023-02-14T03:21:43.047Z,43.40
2023-02-14T03:24:30.742Z,42.07
2023-02-14T03:27:08.612Z,39.17
2023-02-14T03:29:47.793Z,37.80
2023-02-14T03:32:20.207Z,37.97
2023-02-14T03:35:18.180Z,37.37
2023-02-14T03:38:33.068Z,36.38
2023-02-14T03:41:02.715Z,40.67
2023-02-14T03:43:35.300Z,41.60
2023-02-14T03:46:14.791Z,44.40
2023-02-14T03:48:41.879Z,44.33
2023-02-14T03:51:11.484Z,39.73
2023-02-14T03:53:40.247Z,40.03
2023-02-14T03:56:23.466Z,43.53
2023-02-14T03:58:52.169Z,46.47
2023-02-14T04:01:24.872Z,45.67
2023-02-14T04:03:53.233Z,37.67
2023-02-14T04:06:22.931Z,41.00
2023-02-14T04:08:51.362Z,44.13
2023-02-14T04:11:19.549Z,42.57
2023-02-14T04:13:47.617Z,44.07
2023-02-14T04:16:15.704Z,43.73
2023-02-14T04:19:02.225Z,43.73
2023-02-14T04:21:30.494Z,41.50
2023-02-14T04:23:58.596Z,44.93
2023-02-14T04:26:27.396Z,43.60
2023-02-14T04:28:55.136Z,45.50
2023-02-14T04:31:22.939Z,48.70
2023-02-14T04:33:51.437Z,44.73
2023-02-14T04:36:19.064Z,42.73
2023-02-14T04:38:47.341Z,45.33
2023-02-14T04:41:15.344Z,47.70
2023-02-14T04:43:43.135Z,48.73
2023-02-14T04:46:11.412Z,45.97
2023-02-14T04:48:39.612Z,43.47
2023-02-14T04:51:07.217Z,42.53
2023-02-14T04:53:40.274Z,43.67
2023-02-14T04:56:08.464Z,40.80
2023-02-14T04:58:36.192Z,47.40
2023-02-14T05:01:04.618Z,40.27
2023-02-14T05:03:32.969Z,44.40
2023-02-14T05:06:01.266Z,44.40
2023-02-14T05:08:28.811Z,42.43
2023-02-14T05:10:57.562Z,41.20
2023-02-14T05:13:25.844Z,42.33
2023-02-14T05:15:53.985Z,45.10
2023-02-14T05:18:21.969Z,43.57
2023-02-14T05:20:52.403Z,43.73
2023-02-14T05:23:20.546Z,49.70
2023-02-14T05:25:51.145Z,44.00
2023-02-14T05:28:20.599Z,41.40
2023-02-14T05:30:48.308Z,40.27
2023-02-14T05:33:16.623Z,42.57
2023-02-14T05:35:45.284Z,44.37
2023-02-14T05:38:13.938Z,42.67
2023-02-14T05:40:42.215Z,44.23
2023-02-14T05:43:09.949Z,46.87
2023-02-14T05:45:38.432Z,50.43
2023-02-14T05:48:06.599Z,44.27
2023-02-14T05:50:34.122Z,49.93
2023-02-14T05:53:02.163Z,51.40
2023-02-14T05:55:30.389Z,48.20
2023-02-14T05:57:58.882Z,46.27
2023-02-14T06:00:27.494Z,50.77
2023-02-14T06:02:55.627Z,55.57
2023-02-14T06:05:23.666Z,45.10
2023-02-14T06:07:50.960Z,46.40
2023-02-14T06:10:20.309Z,47.90
2023-02-14T06:12:49.097Z,44.57
2023-02-14T06:15:17.765Z,44.03
2023-02-14T06:17:46.339Z,42.30
2023-02-14T06:20:14.600Z,40.80
2023-02-14T06:22:43.215Z,43.70
2023-02-14T06:25:11.652Z,42.77
2023-02-14T06:27:39.688Z,44.17
2023-02-14T06:30:11.675Z,44.00
2023-02-14T06:32:40.071Z,43.07
2023-02-14T06:35:07.934Z,42.83
2023-02-14T06:37:35.688Z,40.40
2023-02-14T06:40:04.468Z,45.40
2023-02-14T06:42:32.162Z,41.13
2023-02-14T06:45:01.259Z,43.83
2023-02-14T06:47:29.940Z,43.83
2023-02-14T06:50:00.081Z,51.50
2023-02-14T06:52:27.925Z,46.10
2023-02-14T06:54:56.471Z,45.83
2023-02-14T06:57:24.506Z,50.90
2023-02-14T06:59:52.539Z,47.40
2023-02-14T07:02:24.689Z,48.77
2023-02-14T07:04:53.308Z,48.50
2023-02-14T07:07:21.349Z,45.03
2023-02-14T07:09:51.067Z,55.00
2023-02-14T07:12:19.370Z,41.40
2023-02-14T07:14:47.524Z,50.73
2023-02-14T07:17:16.032Z,40.57
2023-02-14T07:19:44.796Z,51.03
2023-02-14T07:22:13.150Z,50.87
2023-02-14T07:24:40.908Z,49.77
2023-02-14T07:27:08.977Z,46.87
2023-02-14T07:29:37.859Z,46.90
2023-02-14T07:32:06.952Z,52.13
2023-02-14T07:34:35.109Z,50.43
2023-02-14T07:37:02.383Z,55.07
2023-02-14T07:39:31.309Z,51.53
2023-02-14T07:41:58.904Z,43.97
2023-02-14T07:44:27.024Z,46.97
2023-02-14T07:46:54.912Z,51.37
2023-02-14T07:49:24.296Z,50.53
2023-02-14T07:51:52.360Z,48.73
2023-02-14T07:54:21.237Z,50.30
2023-02-14T07:56:49.660Z,46.47
2023-02-14T07:59:17.489Z,53.13
2023-02-14T08:01:44.783Z,47.53
2023-02-14T08:04:14.029Z,49.13
2023-02-14T08:06:42.432Z,57.10
2023-02-14T08:09:24.789Z,53.13
2023-02-14T08:12:14.694Z,50.57
2023-02-14T08:14:42.239Z,47.87
2023-02-14T08:17:13.951Z,52.30
2023-02-14T08:19:42.244Z,55.53
2023-02-14T08:22:10.211Z,49.40
2023-02-14T08:24:38.974Z,54.80
2023-02-14T08:27:07.441Z,61.03
2023-02-14T08:29:35.676Z,53.17
2023-02-14T08:32:03.985Z,53.30
2023-02-14T08:34:32.205Z,53.60
2023-02-14T08:37:01.008Z,55.53
2023-02-14T08:39:28.671Z,56.43
2023-02-14T08:41:57.063Z,63.70
2023-02-14T08:44:25.131Z,59.70
2023-02-14T08:46:53.750Z,51.07
2023-02-14T08:49:21.991Z,52.30
2023-02-14T08:51:50.568Z,60.97
2023-02-14T08:54:18.710Z,51.67
2023-02-14T08:56:46.749Z,46.43
2023-02-14T08:59:14.953Z,53.97
2023-02-14T09:01:43.296Z,50.53
2023-02-14T09:04:11.425Z,53.33
2023-02-14T09:06:40.086Z,52.53
2023-02-14T09:09:07.664Z,52.00
2023-02-14T09:11:35.581Z,54.47
2023-02-14T09:14:04.957Z,50.40
2023-02-14T09:16:32.524Z,51.83
2023-02-14T09:19:00.359Z,52.30
2023-02-14T09:21:28.068Z,52.37
2023-02-14T09:23:55.933Z,48.87
2023-02-14T09:26:23.919Z,58.33
2023-02-14T09:28:52.199Z,49.27
2023-02-14T09:31:22.281Z,49.67
2023-02-14T09:33:50.459Z,51.50
2023-02-14T09:36:35.808Z,48.93
2023-02-14T09:39:07.183Z,44.97
2023-02-14T09:42:07.313Z,44.33
2023-02-14T09:44:41.077Z,44.37
2023-02-14T09:47:34.932Z,50.60
2023-02-14T09:50:06.131Z,45.80
2023-02-14T09:52:33.363Z,41.43
2023-02-14T09:55:01.516Z,41.57
2023-02-14T09:57:53.361Z,35.50
2023-02-14T10:00:43.687Z,41.47
2023-02-14T10:03:18.213Z,36.80
2023-02-14T10:06:12.662Z,38.13
2023-02-14T10:08:49.563Z,33.57
2023-02-14T10:11:20.519Z,36.05
2023-02-14T10:14:10.554Z,30.73
2023-02-14T10:16:53.756Z,32.43
2023-02-14T10:19:39.213Z,34.23
2023-02-14T10:22:17.553Z,32.10
2023-02-14T10:25:24.352Z,33.27
2023-02-14T10:27:52.851Z,36.10
2023-02-14T10:30:22.253Z,31.10
2023-02-14T10:33:06.441Z,36.43
2023-02-14T10:35:45.481Z,33.13
2023-02-14T10:38:50.212Z,32.83
2023-02-14T10:41:53.347Z,35.67
2023-02-14T10:44:42.092Z,38.93
2023-02-14T10:47:47.028Z,35.30
2023-02-14T10:50:35.664Z,37.17
2023-02-14T10:53:17.159Z,38.03
2023-02-14T10:56:06.520Z,41.60
2023-02-14T10:58:37.773Z,40.70
2023-02-14T11:01:16.305Z,40.37
2023-02-14T11:03:56.165Z,38.37
2023-02-14T11:06:24.297Z,38.27
2023-02-14T11:08:51.982Z,45.77
2023-02-14T11:11:31.295Z,36.77
2023-02-14T11:13:59.044Z,36.63
2023-02-14T11:16:31.427Z,31.77
2023-02-14T11:19:25.990Z,32.60
2023-02-14T11:21:54.716Z,34.13
2023-02-14T11:24:31.891Z,32.63
2023-02-14T11:27:07.450Z,37.03
2023-02-14T11:29:45.053Z,36.60
2023-02-14T11:32:16.565Z,34.10
2023-02-14T11:34:59.808Z,34.60
2023-02-14T11:37:34.085Z,39.30
2023-02-14T11:40:01.486Z,42.33
2023-02-14T11:42:34.181Z,43.23
2023-02-14T11:45:02.112Z,42.50
2023-02-14T11:47:30.746Z,36.47
2023-02-14T11:50:02.270Z,36.43
2023-02-14T11:52:29.964Z,47.50
2023-02-14T11:54:57.660Z,45.53
2023-02-14T11:57:33.873Z,42.53
2023-02-14T12:00:01.835Z,42.80
2023-02-14T12:02:33.659Z,45.63
2023-02-14T12:05:06.025Z,59.13
2023-02-14T12:07:36.580Z,47.27
2023-02-14T12:10:18.900Z,49.03
2023-02-14T12:12:51.782Z,49.40
2023-02-14T12:15:23.520Z,51.50
2023-02-14T12:17:53.278Z,51.97
2023-02-14T12:20:27.133Z,53.03
2023-02-14T12:23:13.761Z,48.33
2023-02-14T12:25:44.545Z,50.17
2023-02-14T12:28:14.199Z,47.33
2023-02-14T12:30:41.915Z,45.67
2023-02-14T12:33:35.378Z,48.03
2023-02-14T12:36:44.194Z,43.13
2023-02-14T12:39:29.369Z,44.47
2023-02-14T12:42:02.895Z,37.27
2023-02-14T12:44:42.587Z,43.10
2023-02-14T12:47:14.211Z,42.07
2023-02-14T12:49:49.739Z,40.30
2023-02-14T12:52:33.353Z,46.00
2023-02-14T12:55:24.141Z,44.00
2023-02-14T12:58:12.729Z,45.47
2023-02-14T13:00:44.426Z,43.23
2023-02-14T13:03:26.677Z,34.00
2023-02-14T13:06:16.023Z,41.60
2023-02-14T13:08:49.289Z,36.03
2023-02-14T13:11:22.408Z,44.20
2023-02-14T13:14:04.489Z,39.10
2023-02-14T13:16:39.691Z,41.03
2023-02-14T13:19:22.035Z,40.80
2023-02-14T13:21:49.919Z,41.47
2023-02-14T13:24:28.704Z,44.97
2023-02-14T13:26:57.469Z,38.90
2023-02-14T13:29:25.361Z,46.43
2023-02-14T13:31:58.839Z,44.57
2023-02-14T13:34:33.277Z,40.37
2023-02-14T13:37:00.811Z,46.90
2023-02-14T13:39:38.476Z,39.88
2023-02-14T13:42:07.166Z,41.03
2023-02-14T13:44:48.978Z,40.83
2023-02-14T13:47:26.081Z,42.00
2023-02-14T13:50:00.796Z,42.00
2023-02-14T13:52:44.021Z,42.77
2023-02-14T13:55:46.228Z,42.35
2023-02-14T13:58:21.834Z,43.13
2023-02-14T14:00:49.649Z,39.65
2023-02-14T14:03:28.934Z,46.65
2023-02-14T14:06:09.884Z,45.67
2023-02-14T14:08:42.650Z,45.58
2023-02-14T14:11:22.904Z,43.25
2023-02-14T14:13:59.746Z,44.15
2023-02-14T14:16:33.641Z,43.40
2023-02-14T14:19:10.192Z,47.00
2023-02-14T14:24:26.936Z,49.67
2023-02-14T14:27:08.288Z,47.57
2023-02-14T14:29:45.296Z,43.47
2023-02-14T14:32:18.354Z,41.97
2023-02-14T14:34:52.554Z,42.93
2023-02-14T14:37:21.932Z,47.90
2023-02-14T14:39:53.763Z,42.77
2023-02-14T14:42:21.469Z,45.80
2023-02-14T14:45:00.032Z,44.30
2023-02-14T14:47:30.778Z,44.03
2023-02-14T14:50:04.717Z,46.83
2023-02-14T14:52:39.450Z,48.43
2023-02-14T14:55:08.493Z,45.03
2023-02-14T14:57:39.718Z,47.80
2023-02-14T15:00:18.648Z,43.93
2023-02-14T15:03:00.611Z,43.13
2023-02-14T15:05:55.907Z,43.33
2023-02-14T15:08:25.588Z,41.97
2023-02-14T15:10:55.691Z,45.50
2023-02-14T15:13:50.760Z,45.53
2023-02-14T15:16:21.558Z,43.70
2023-02-14T15:18:49.548Z,46.57
2023-02-14T15:21:16.475Z,45.20
2023-02-14T15:23:44.206Z,47.17
2023-02-14T15:26:17.103Z,50.90
2023-02-14T15:28:44.655Z,50.27
2023-02-14T15:31:11.859Z,46.67
2023-02-14T15:33:39.631Z,50.40
2023-02-14T15:36:08.677Z,50.93
2023-02-14T15:38:36.684Z,50.10
2023-02-14T15:41:04.676Z,56.83
2023-02-14T15:43:33.015Z,53.47
2023-02-14T15:46:21.310Z,49.17
2023-02-14T15:48:49.335Z,52.33
2023-02-14T15:51:26.307Z,53.70
2023-02-14T15:53:58.865Z,51.47
2023-02-14T15:56:44.828Z,49.97
2023-02-14T15:59:20.991Z,53.17
2023-02-14T16:02:05.960Z,50.45
2023-02-14T16:04:36.148Z,49.23
2023-02-14T16:07:06.881Z,53.43
2023-02-14T16:09:35.464Z,49.60
2023-02-14T16:12:31.754Z,55.63
2023-02-14T16:15:17.514Z,47.90
2023-02-14T16:17:45.931Z,49.73
2023-02-14T16:20:43.720Z,55.03
2023-02-14T16:25:47.024Z,52.17
2023-02-14T16:28:14.953Z,52.33
2023-02-14T16:30:42.688Z,54.93
2023-02-14T16:33:22.202Z,56.70
2023-02-14T16:35:49.335Z,53.17
2023-02-14T16:38:17.722Z,56.90
2023-02-14T16:40:46.819Z,60.27
2023-02-14T16:43:18.612Z,56.77
2023-02-14T16:45:45.699Z,54.27
2023-02-14T16:48:15.794Z,57.23
2023-02-14T16:50:42.549Z,62.40
2023-02-14T16:53:22.677Z,53.10
2023-02-14T16:55:50.801Z,61.20
2023-02-14T16:58:19.562Z,52.13
2023-02-14T17:00:50.503Z,57.37
2023-02-14T17:03:18.184Z,53.47
2023-02-14T17:05:45.647Z,51.90
2023-02-14T17:08:13.216Z,54.73
2023-02-14T17:10:40.330Z,55.27
2023-02-14T17:13:07.465Z,57.80
2023-02-14T17:15:35.480Z,57.77
2023-02-14T17:18:09.044Z,60.17
2023-02-14T17:20:37.115Z,55.63
2023-02-14T17:23:04.974Z,61.57
2023-02-14T17:25:32.119Z,58.27
2023-02-14T17:28:03.142Z,61.83
2023-02-14T17:30:31.031Z,55.70
2023-02-14T17:32:58.649Z,59.87
2023-02-14T17:35:26.731Z,56.90
2023-02-14T17:37:54.511Z,59.17
2023-02-14T17:40:22.931Z,64.90
2023-02-14T17:42:51.209Z,63.27
2023-02-14T17:45:18.992Z,58.07
2023-02-14T17:47:46.553Z,62.50
2023-02-14T17:50:14.768Z,59.87
2023-02-14T17:52:42.849Z,57.37
2023-02-14T17:55:16.466Z,58.07
2023-02-14T17:57:43.948Z,60.97
2023-02-14T18:00:16.443Z,61.40
2023-02-14T18:02:45.931Z,62.30
2023-02-14T18:05:13.390Z,62.13
2023-02-14T18:07:41.041Z,69.00
2023-02-14T18:10:09.911Z,61.33
2023-02-14T18:12:38.002Z,65.80
2023-02-14T18:15:06.833Z,68.03
2023-02-14T18:17:34.495Z,70.80
2023-02-14T18:20:03.236Z,72.77
2023-02-14T18:22:30.569Z,67.77
2023-02-14T18:24:58.875Z,62.57
2023-02-14T18:27:26.649Z,57.67
2023-02-14T18:29:54.394Z,59.47
2023-02-14T18:32:22.368Z,72.23
2023-02-14T18:34:51.156Z,56.90
2023-02-14T18:37:19.242Z,76.70
2023-02-14T18:39:47.456Z,66.00
2023-02-14T18:42:15.459Z,65.40
2023-02-14T18:44:43.058Z,64.13
2023-02-14T18:47:11.083Z,68.90
2023-02-14T18:49:39.417Z,68.40
2023-02-14T18:52:07.425Z,68.80
2023-02-14T18:54:35.351Z,71.33
2023-02-14T18:57:07.064Z,62.57
2023-02-14T18:59:35.240Z,64.73
2023-02-14T19:02:03.328Z,73.43
2023-02-14T19:04:30.976Z,68.90
2023-02-14T19:06:58.654Z,111.67
2023-02-14T19:09:27.534Z,83.07
2023-02-14T19:12:00.035Z,76.30
2023-02-14T19:14:27.944Z,79.33
2023-02-14T19:16:55.552Z,74.80
2023-02-14T19:19:24.180Z,70.17
2023-02-14T19:21:52.110Z,75.67
2023-02-14T19:24:19.974Z,94.70
2023-02-14T19:26:48.326Z,87.40
2023-02-14T19:29:17.239Z,88.60
2023-02-14T19:31:45.867Z,79.20
2023-02-14T19:34:20.216Z,75.03
2023-02-14T19:36:48.027Z,79.77
2023-02-14T19:39:15.710Z,98.40
2023-02-14T19:41:44.604Z,94.07
2023-02-14T19:44:13.918Z,89.10
2023-02-14T19:46:42.516Z,97.33
2023-02-14T19:49:12.049Z,104.37
2023-02-14T19:51:40.032Z,98.00
2023-02-14T19:54:09.723Z,90.77
2023-02-14T19:56:37.948Z,84.23
2023-02-14T19:59:14.428Z,83.60
2023-02-14T20:01:48.520Z,81.03
2023-02-14T20:04:17.796Z,77.93
2023-02-14T20:06:47.092Z,92.03
2023-02-14T20:09:15.628Z,80.67
2023-02-14T20:11:51.570Z,90.33
2023-02-14T20:14:27.219Z,87.43
2023-02-14T20:16:55.793Z,77.50
2023-02-14T20:19:29.520Z,80.83
2023-02-14T20:21:58.184Z,75.33
2023-02-14T20:24:27.885Z,79.53
2023-02-14T20:26:55.525Z,90.97
2023-02-14T20:29:23.966Z,82.30
2023-02-14T20:31:53.489Z,76.03
2023-02-14T20:34:21.572Z,70.67
2023-02-14T20:36:56.179Z,73.57
2023-02-14T20:39:27.018Z,74.60
2023-02-14T20:41:54.668Z,77.87
2023-02-14T20:44:22.615Z,82.47
2023-02-14T20:46:51.694Z,91.10
2023-02-14T20:49:20.894Z,80.57
2023-02-14T20:51:51.677Z,69.63
2023-02-14T20:54:19.557Z,88.47
2023-02-14T20:56:47.577Z,76.97
2023-02-14T20:59:16.206Z,74.20
2023-02-14T21:01:44.480Z,71.93
2023-02-14T21:04:14.094Z,70.77
2023-02-14T21:06:42.162Z,67.50
2023-02-14T21:09:09.745Z,66.97
2023-02-14T21:11:39.026Z,68.00
2023-02-14T21:14:08.080Z,60.57
2023-02-14T21:16:36.493Z,67.73
2023-02-14T21:19:05.994Z,68.77
2023-02-14T21:21:36.463Z,70.57
2023-02-14T21:24:24.434Z,59.77
2023-02-14T21:26:52.905Z,62.33
2023-02-14T21:29:21.082Z,57.13
2023-02-14T21:31:50.776Z,55.77
2023-02-14T21:34:19.003Z,65.43
2023-02-14T21:36:48.097Z,57.83
2023-02-14T21:39:16.829Z,59.63
2023-02-14T21:41:44.723Z,58.97
2023-02-14T21:44:32.731Z,62.43
2023-02-14T21:49:47.352Z,57.37
2023-02-14T21:52:15.200Z,62.00
2023-02-14T21:54:43.606Z,60.70
2023-02-14T21:57:11.131Z,60.37
2023-02-14T21:59:40.510Z,59.50
2023-02-14T22:02:09.018Z,60.50
2023-02-14T22:04:36.659Z,56.10
2023-02-14T22:07:04.712Z,61.97
2023-02-14T22:09:33.153Z,58.83
2023-02-14T22:12:01.316Z,60.93
2023-02-14T22:14:29.347Z,61.53
2023-02-14T22:16:57.812Z,60.17
2023-02-14T22:19:26.557Z,58.10
2023-02-14T22:21:54.351Z,54.40
2023-02-14T22:24:22.569Z,55.33
2023-02-14T22:26:50.865Z,60.37
2023-02-14T22:29:19.678Z,51.97
2023-02-14T22:31:48.220Z,56.97
2023-02-14T22:34:19.593Z,53.03
2023-02-14T22:36:47.263Z,52.00
2023-02-14T22:39:16.064Z,55.40
2023-02-14T22:41:44.200Z,52.53
2023-02-14T22:44:17.211Z,66.37
2023-02-14T22:46:48.563Z,57.77
2023-02-14T22:49:17.524Z,61.97
2023-02-14T22:51:44.655Z,55.73
2023-02-14T22:54:13.782Z,56.60
2023-02-14T22:56:48.113Z,60.83
2023-02-14T22:59:18.505Z,56.07
2023-02-14T23:01:46.436Z,59.57
2023-02-14T23:04:14.276Z,59.73
2023-02-14T23:06:42.013Z,54.67
2023-02-14T23:09:10.203Z,59.27
2023-02-14T23:11:37.920Z,58.67
2023-02-14T23:14:24.252Z,57.67
2023-02-14T23:17:10.250Z,55.40
2023-02-14T23:19:58.636Z,52.80
2023-02-14T23:22:38.002Z,53.90
2023-02-14T23:25:10.710Z,50.67
2023-02-14T23:27:47.659Z,56.67
2023-02-14T23:30:18.437Z,50.63
2023-02-14T23:32:46.833Z,53.80
2023-02-14T23:35:16.170Z,51.93
2023-02-14T23:37:44.736Z,51.10
2023-02-14T23:40:13.720Z,54.80
2023-02-14T23:42:42.120Z,51.70
2023-02-14T23:45:28.436Z,50.90
2023-02-14T23:47:56.528Z,59.53
2023-02-14T23:50:25.187Z,53.33
2023-02-14T23:52:53.234Z,50.73
2023-02-14T23:55:21.260Z,50.30
2023-02-14T23:57:49.523Z,59.00
